Nearby METAR Reports

 

YSCB - Canberra (civ/Mi, Australia
Distance from station: NNE 21km
Updated: 29/05/2022 15:30
Partly cloudy
Partly cloudy
 Wind from NW
Wind: NW 26 km/h
Temperature: 11°C
Dew Point: 3°C
Humidity: 58%
Barometer: 1006 hPa
Clouds: Partly cloudy
Visibility: 10 km
Cloud details: Partly cloudy 1158 m
2022/05/29 05:30 YSCB 290530Z AUTO 31014KT 9999 // SCT038 11/03 Q1006
YCOM - Cooma Snowy Mtns, Australia
Distance from station: S 94km
Updated: 29/05/2022 11:00
NOT Current
Partly cloudy
Partly cloudy
 Wind from WSW
Wind: WSW 11 km/h
Temperature: 7°C
Wind Chill: 5°C
Dew Point: 4°C
Humidity: 81%
Barometer: 1008 hPa
Clouds: Partly cloudy
Visibility: 10 km
Cloud details: Partly cloudy 396 m
2022/05/29 01:00 YCOM 290100Z AUTO 24006KT 9999 // SCT013 07/04 Q1008
 
YSNW - Nowra (aus-Navy), Australia
Distance from station: ENE 140km
Updated: 28/05/2022 16:31
NOT Current
Thunderstorm rain, Mostly cloudy
Thunderstorm rain, Mostly cloudy
 Wind from WSW
Wind: WSW 19 km/h
Temperature: 13°C
Dew Point: 12°C
Humidity: 94%
Barometer: 1009 hPa
Summary: Thunderstorm Rain
Clouds: Mostly cloudy
Visibility: 10 km
Cloud details: Partly cloudy 945 m
Partly cloudy 1219 m
Mostly cloudy 1768 m
2022/05/28 06:31 YSNW 280631Z AUTO 25010KT 9999 TSRA SCT031 SCT040 BKN058 13/12 Q1009
YSWG - Wagga Wagga(Cv/M, Australia
Distance from station: WNW 153km
Updated: 29/05/2022 09:31
NOT Current
Partly cloudy
Partly cloudy
 Wind from NE
Wind: NE 6 km/h
Temperature: 7°C
Dew Point: 7°C
Humidity: 100%
Barometer: 1012 hPa
Clouds: Partly cloudy
Visibility: 10 km
Cloud details: Partly cloudy 61 m
Partly cloudy 1189 m
2022/05/28 23:31 YSWG 282331Z AUTO 04003KT 9999 // SCT002 SCT039 07/07 Q1012
 
YMER - Merimbula Arpt, Australia
Distance from station: SSE 177km
Updated: 28/05/2022 07:34
NOT Current
Partly cloudy
Partly cloudy
 Wind from calm
Wind: Calm
Temperature: 11°C
Dew Point: 11°C
Humidity: 100%
Barometer: 1013 hPa
Clouds: Partly cloudy
Visibility: 10 km
Cloud details: Partly cloudy 3810 m
2022/05/27 21:34 YMER 272134Z AUTO 00000KT 9999 // SCT125 11/11 Q1013
YMAY - Albury Airport, Australia
Distance from station: WSW 207km
Updated: 29/05/2022 11:24
NOT Current
Partly cloudy
Partly cloudy
 Wind from WNW
Wind: WNW 6 km/h
Temperature: 11°C
Dew Point: 9°C
Humidity: 88%
Barometer: 1011 hPa
Clouds: Partly cloudy
Visibility: 10 km
Cloud details: Partly cloudy 244 m
2022/05/29 01:24 YMAY 290124Z AUTO 29003KT 9999 // SCT008 11/09 Q1011
 
YNAR - Narrandera, Australia
Distance from station: WNW 250km
Updated: 29/05/2022 11:06
NOT Current
Overcast
Overcast
 Wind from W
Wind: W 15 km/h
Temperature: 14°C
Dew Point: 9°C
Humidity: 72%
Barometer: 1012 hPa
Clouds: Overcast
Visibility: 10 km
Cloud details: Mostly cloudy 488 m
Overcast 732 m
Overcast 1036 m
2022/05/29 01:06 YNAR 290106Z AUTO 28008KT 9999 // BKN016 OVC024 OVC034 14/09 Q1012
YSSY - Sydney Intl Airp, Australia
Distance from station: NE 253km
Updated: 29/05/2022 15:30
Few Clouds
Few Clouds
 Wind from W
Wind: W 28 km/h
Temperature: 16°C
Dew Point: 3°C
Humidity: 42%
Barometer: 1005 hPa
Clouds: Few Clouds
Visibility: 10 km
Cloud details: Few Clouds 1219 m
2022/05/29 05:30 YSSY 290530Z 26015KT 9999 FEW040 16/03 Q1005
 
YSRI - Richmond (aus-Af, Australia
Distance from station: NE 257km
Updated: 29/05/2022 15:30
Clear
Clear
 Wind from NW
Wind: NW 17 km/h
Temperature: 18°C
Dew Point: 4°C
Humidity: 40%
Barometer: 1005 hPa
Clouds: Clear
Visibility: 10 km
2022/05/29 05:30 YSRI 290530Z AUTO 31009KT 9999 // NCD 18/04 Q1005 RF00.0/000.2
YWGT - Wangaratta Arp, Australia
Distance from station: WSW 274km
Updated: 29/05/2022 12:52
NOT Current
Partly cloudy
Partly cloudy
 Wind from N
Wind: N 7 km/h
Temperature: 10°C
Wind Chill: 9°C
Dew Point: 8°C
Humidity: 88%
Barometer: 1009 hPa
Clouds: Partly cloudy
Visibility: 10 km
Cloud details: Partly cloudy 183 m
2022/05/29 02:52 YWGT 290252Z AUTO 36004KT 9999 // SCT006 10/08 Q1009
 
YGTH - Griffith Arpt, Australia
Distance from station: WNW 308km
Updated: 29/05/2022 09:15
NOT Current
Mostly cloudy
Mostly cloudy
 Wind from WNW
Wind: WNW 6 km/h
Temperature: 10°C
Dew Point: 10°C
Humidity: 100%
Barometer: 1012 hPa
Clouds: Mostly cloudy
Visibility: 10 km
Cloud details: Partly cloudy 30 m
Mostly cloudy 1554 m
2022/05/28 23:15 YGTH 282315Z AUTO 29003KT 9999 // SCT001 BKN051 10/10 Q1012